Date,TemperatureHighF,TemperatureAvgF,TemperatureLowF,DewpointHighF,DewpointAvgF,DewpointLowF,HumidityHigh,HumidityAvg,HumidityLow,PressureMaxIn,PressureMinIn,WindSpeedMaxMPH,WindSpeedAvgMPH,GustSpeedMaxMPH,PrecipitationSumIn
2012-4-13,67.1,45.8,28.3,37.4,29.5,24.3,86,58,26,30.05,29.91,13,3,13,0.00
2012-4-14,77.6,50.9,30.1,41.9,32.1,24.0,80,53,18,30.01,29.77,7,1,7,0.00
2012-4-15,67.9,59.0,51.5,57.8,51.8,41.0,92,78,54,29.80,29.72,8,1,8,0.06
2012-4-16,99.0,71.0,54.5,65.2,55.3,48.9,94,65,20,29.77,29.57,13,3,13,0.01
2012-4-17,68.2,54.9,41.0,56.4,37.7,29.2,67,53,29,30.11,29.73,14,5,14,0.00
2012-4-18,65.5,45.5,33.1,35.8,30.3,27.3,82,58,28,30.16,29.91,6,1,8,0.00
2012-4-19,82.6,54.3,31.7,45.1,37.0,26.6,85,57,23,29.92,29.71,9,1,9,0.00
2012-4-20,94.7,72.8,46.1,52.4,45.1,39.1,81,41,17,29.77,29.54,12,4,12,0.00
2012-4-21,65.0,52.5,42.5,52.5,45.9,40.5,93,79,59,29.68,29.52,14,3,14,0.35
2012-4-22,50.6,44.1,40.5,43.9,40.2,37.3,93,86,76,29.70,29.43,10,2,10,0.73
2012-4-23,55.8,44.6,39.4,50.7,41.4,35.7,94,89,81,29.43,28.95,10,1,10,0.85
2012-4-24,54.4,42.7,37.1,42.2,35.2,32.4,87,75,55,29.42,29.06,18,4,18,0.07
2012-4-25,50.9,42.7,34.0,40.1,33.5,27.8,86,70,53,29.74,29.41,14,3,14,0.00
2012-4-26,56.7,42.8,28.4,46.0,36.4,24.9,91,79,48,29.73,29.36,12,2,12,0.11
2012-4-27,45.2,38.2,35.3,41.2,30.1,23.9,90,73,57,29.93,29.47,20,6,20,0.02
2012-4-28,55.8,39.2,29.2,29.5,21.7,15.3,74,52,24,30.05,29.93,13,4,13,0.00
2012-4-29,60.5,41.6,24.8,30.9,21.1,16.7,77,48,20,30.09,29.93,20,3,23,0.00
2012-4-30,65.7,46.8,27.0,38.8,26.4,19.3,77,49,25,30.16,29.87,10,1,10,0.02
2012-5-1,56.5,50.1,45.2,52.3,46.2,37.2,91,87,66,29.90,29.77,6,1,6,0.52
2012-5-2,60.7,54.5,49.3,53.3,49.4,46.2,91,83,74,29.92,29.84,8,1,8,0.35
2012-5-3,75.1,59.0,50.0,62.0,53.1,47.4,92,82,61,29.92,29.76,9,2,9,0.01
2012-5-4,78.5,62.9,52.9,64.4,56.5,50.6,94,81,53,29.86,29.69,12,2,13,0.33
2012-5-5,80.6,62.2,49.1,59.2,51.9,38.3,92,71,45,29.89,29.73,12,2,12,0.00
2012-5-6,85.0,58.1,38.9,50.4,39.0,24.1,81,53,14,29.93,29.82,10,1,10,0.00
2012-5-7,78.7,59.8,44.3,53.1,42.6,32.2,90,55,33,29.92,29.77,11,2,11,0.10
2012-5-8,59.4,54.5,49.7,57.7,52.2,47.2,95,92,88,29.77,29.56,8,2,8,2.62
2012-5-9,70.9,61.6,54.0,59.9,55.3,47.4,95,81,61,29.58,29.43,11,1,11,0.09
2012-5-10,54.0,49.9,44.3,48.3,43.9,39.6,88,80,66,29.61,29.36,20,4,20,0.01
2012-5-11,69.1,52.1,37.8,43.6,36.4,29.5,92,61,25,29.91,29.62,17,3,17,0.01
2012-5-12,85.3,58.4,35.6,52.0,42.2,31.5,87,61,23,30.02,29.90,12,1,12,0.00
2012-5-13,86.6,65.8,51.3,58.4,51.8,45.2,84,63,36,29.99,29.88,10,1,10,0.00
2012-5-14,69.5,61.6,55.8,60.0,56.0,50.2,93,82,71,29.94,29.86,6,1,6,0.19
2012-5-15,70.6,62.4,58.7,64.8,59.5,56.3,94,90,79,29.88,29.73,6,1,6,0.79
2012-5-16,83.5,63.5,50.4,69.0,56.8,41.2,96,80,40,29.83,29.56,15,2,15,0.12
2012-5-17,74.0,55.5,41.4,45.7,40.3,35.1,88,61,29,30.00,29.83,13,3,13,0.05
2012-5-18,89.5,57.3,36.4,49.3,40.6,32.3,88,60,21,30.08,29.93,7,1,7,0.01
2012-5-19,98.5,65.8,45.2,56.6,48.0,40.9,86,59,19,30.02,29.90,7,1,7,0.00
2012-5-20,98.3,69.9,50.0,61.3,54.2,45.6,89,62,25,30.06,29.96,8,1,8,0.00
2012-5-21,83.5,65.5,53.3,63.9,56.1,44.9,90,73,49,30.02,29.81,11,1,11,0.06
2012-5-22,88.2,68.8,63.0,69.5,62.5,59.6,93,81,50,29.81,29.62,6,1,6,0.52
2012-5-23,92.9,70.1,61.9,68.2,62.1,58.4,93,78,40,29.82,29.67,6,1,6,0.01
2012-5-24,86.8,69.8,59.4,69.8,62.0,56.3,91,77,53,29.96,29.82,9,1,9,0.00
2012-5-25,94.7,73.2,60.5,70.9,63.3,57.2,92,73,40,29.97,29.81,9,1,9,0.00
2012-5-26,91.4,74.6,60.1,65.2,56.9,46.3,90,58,26,29.98,29.83,10,2,12,0.00
2012-5-27,95.2,69.7,52.2,63.3,55.1,47.5,88,63,31,30.02,29.78,6,1,6,0.00
2012-5-28,98.3,74.0,59.4,72.7,62.9,54.7,88,70,40,29.82,29.62,7,1,7,0.01
2012-5-29,94.0,75.7,64.4,74.4,67.7,61.8,93,78,50,29.62,29.40,13,2,13,0.77
2012-5-30,86.8,69.2,55.6,69.0,58.7,48.0,93,72,37,29.60,29.50,10,1,10,0.02
2012-5-31,78.3,60.7,49.7,55.4,49.4,44.6,90,69,35,29.80,29.59,13,2,13,0.00
2012-6-1,70.0,60.1,45.7,58.0,51.5,42.1,90,74,54,29.85,29.59,8,2,8,0.07
2012-6-2,68.8,59.3,49.7,59.9,54.0,45.9,92,83,59,29.59,29.48,9,1,9,0.66
2012-6-3,75.1,57.7,46.4,59.9,51.4,44.0,93,81,49,29.58,29.43,8,1,8,0.08
2012-6-4,65.5,55.0,48.6,55.7,50.2,46.2,93,84,65,29.68,29.44,7,1,7,0.17
2012-6-5,78.5,57.8,47.3,58.3,50.2,44.9,93,78,44,29.77,29.67,5,1,5,0.09
2012-6-6,80.8,57.5,49.3,59.1,51.4,45.7,92,81,40,29.82,29.73,15,1,15,0.06
2012-6-7,81.4,62.3,49.3,61.8,52.9,46.5,92,74,42,29.82,29.72,10,1,10,0.00
2012-6-8,81.5,65.7,50.4,61.7,54.4,46.9,91,69,42,29.77,29.60,13,2,13,0.00
2012-6-9,76.9,63.6,54.2,64.4,57.5,50.4,89,81,59,29.80,29.65,4,0,4,0.01
2012-6-10,99.4,72.9,57.4,69.5,62.0,54.8,93,72,33,29.94,29.80,6,1,6,0.00
2012-6-11,90.2,75.3,61.6,73.0,65.0,58.3,92,72,53,29.98,29.88,8,1,8,0.00
2012-6-12,69.5,65.2,61.2,65.7,60.8,54.9,93,86,67,29.91,29.66,7,1,7,0.91
2012-6-13,83.5,66.3,55.8,62.0,55.6,50.2,94,71,39,29.98,29.68,10,2,10,0.02
2012-6-14,55.8,52.4,50.0,50.1,48.4,46.3,89,86,81,30.00,29.97,2,0,2,0.00
2012-10-13,53.1,40.2,25.9,34.2,25.8,13.2,71,57,38,30.29,29.96,8,1,8,0.03
2012-10-14,60.3,49.0,40.3,46.9,4.0,-29.6,64,14,1,29.96,29.59,9,1,9,0.93
2012-10-15,67.5,57.9,51.1,53.2,38.5,3.8,66,51,12,29.59,29.41,14,2,14,0.00
2012-10-16,51.1,44.8,37.6,40.2,31.5,11.2,68,60,28,29.73,29.50,18,5,18,0.01
2012-10-17,61.9,46.3,32.9,45.4,28.5,-11.8,66,51,12,29.80,29.68,8,1,8,0.00
2012-10-18,68.4,50.3,37.6,49.2,27.2,-13.9,65,44,1,29.80,29.66,9,3,9,0.00
2012-10-19,61.0,57.3,52.7,41.9,2.5,-2.3,59,3,1,29.72,29.41,14,2,14,1.02
2012-10-20,60.1,53.7,46.8,46.0,22.5,-5.2,61,34,1,29.57,29.41,11,2,11,0.02
2012-10-21,58.3,50.6,45.7,42.7,30.3,-5.1,61,48,10,29.77,29.57,16,5,16,0.00
2012-10-22,62.5,53.0,46.3,46.5,25.6,-5.9,59,39,6,29.89,29.76,14,5,14,0.00
2012-10-23,56.9,47.8,39.4,40.5,4.0,-12.6,55,15,1,29.95,29.86,2,0,2,0.05
2012-10-24,52.2,50.6,48.8,36.5,24.4,-4.5,56,39,1,29.99,29.90,5,1,5,0.04
2012-10-25,66.6,55.8,50.8,48.0,25.4,-0.2,51,34,1,30.03,29.95,7,2,7,0.00
2012-10-26,64.6,58.4,54.4,37.4,9.9,-1.1,37,11,1,29.99,29.90,6,2,6,0.00
2012-10-27,66.6,59.4,53.6,49.6,15.0,-1.6,55,17,1,29.92,29.76,5,1,5,0.33
2012-10-28,54.2,51.8,49.0,-0.6,-2.9,-5.2,12,2,1,29.80,29.63,5,1,5,0.00
2012-10-29,64.1,59.0,47.3,43.1,32.3,-27.0,54,39,1,29.62,28.79,28,8,28,0.12
2012-10-30,60.1,57.1,51.7,45.3,27.1,-0.4,58,36,1,29.24,28.86,20,5,20,0.22
2012-10-31,52.6,46.6,42.5,36.5,19.9,-8.1,60,38,1,29.31,29.19,8,2,8,0.03
2012-11-1,47.5,43.9,42.5,20.3,-3.2,-12.3,34,10,1,29.36,29.26,10,2,10,0.09
2012-11-2,43.7,40.2,37.4,28.6,-5.2,-14.2,55,11,1,29.55,29.36,15,5,16,0.06
2012-11-3,42.7,38.6,36.0,30.3,2.2,-43.5,63,23,1,29.77,29.55,13,6,13,0.00
2012-11-4,40.5,36.9,33.8,28.7,15.6,-17.1,63,46,7,29.85,29.75,10,3,10,0.00
2012-11-5,39.1,34.2,26.3,23.4,20.2,15.7,65,56,45,29.98,29.82,12,2,12,0.00
2012-11-6,40.0,29.9,22.0,22.6,15.9,2.0,65,56,40,30.03,29.90,7,1,7,0.00
2012-11-7,38.5,30.0,21.4,25.8,15.9,-1.3,63,56,32,29.95,29.75,7,0,7,0.00
2012-11-8,40.7,33.3,27.9,26.0,20.9,6.9,64,60,39,29.83,29.72,18,5,18,0.00
2012-11-9,44.6,33.5,25.7,31.0,7.3,-22.9,62,38,10,29.96,29.81,13,3,13,0.00
2012-11-10,51.8,44.1,37.8,38.3,10.5,-13.9,60,29,1,30.15,29.97,6,1,6,0.00
2012-11-11,62.6,49.3,41.6,46.6,18.4,-11.0,58,33,1,30.18,30.11,8,2,8,0.09
2012-11-12,64.4,51.9,40.9,47.8,13.3,-11.5,55,23,1,30.15,29.82,13,3,13,0.01
2012-11-13,47.3,39.0,34.9,28.6,6.2,-16.2,58,28,1,30.29,29.95,12,3,12,0.36
2012-11-14,43.6,32.9,26.1,25.7,7.9,-22.7,60,39,2,30.40,30.28,3,1,3,0.00
2012-11-15,40.5,29.9,23.9,26.8,4.2,-23.6,60,36,2,30.30,30.12,5,1,5,0.00
2012-11-16,43.2,29.8,21.6,28.0,-1.8,-26.1,60,30,1,30.29,30.12,6,1,6,0.00
2012-11-17,46.8,32.4,23.8,31.9,0.6,-25.0,58,30,1,30.47,30.29,4,1,4,0.00
2012-11-18,45.0,32.2,22.3,30.7,0.1,-26.1,59,28,1,30.50,30.36,5,1,5,0.01
2012-11-19,46.4,32.1,22.7,31.1,0.4,-25.8,59,29,1,30.38,30.06,5,2,5,0.00
2012-11-20,48.6,35.1,26.3,32.6,6.6,-22.7,59,35,7,30.06,29.92,3,1,3,0.00
2012-11-21,51.5,36.4,28.1,33.4,7.4,-20.7,59,34,1,30.05,29.96,4,1,4,0.00
2012-11-22,53.3,36.1,25.7,35.0,7.0,-23.4,57,34,1,30.07,29.85,5,1,5,0.00
2012-11-23,56.7,39.4,26.8,39.2,3.9,-22.5,56,25,1,29.85,29.44,8,3,8,0.06
2012-11-24,41.8,33.6,29.0,27.4,14.4,-18.4,61,47,1,29.59,29.46,19,8,19,0.01
2012-11-25,31.3,29.9,27.4,17.4,-7.2,-21.8,61,22,1,29.65,29.58,13,4,13,0.00
2012-11-26,37.6,32.8,27.4,21.5,-5.2,-22.1,54,20,1,30.01,29.64,9,3,9,0.01
2012-11-27,38.3,31.4,26.6,24.7,-1.7,-22.7,59,26,1,30.08,30.00,5,0,5,0.01
2012-11-28,37.6,32.9,29.9,23.4,3.8,-20.1,59,34,2,30.03,29.93,10,2,10,0.00
2012-11-29,43.9,34.9,27.7,27.7,3.2,-21.8,57,29,1,30.04,29.94,16,3,16,0.04
2012-11-30,36.7,28.2,24.3,15.8,8.2,-18.6,61,46,1,30.27,30.02,6,2,6,0.00
2012-12-1,32.4,27.4,23.6,12.0,-5.9,-19.6,59,24,1,30.31,30.14,7,2,7,0.00
2012-12-2,49.5,40.2,32.4,-4.8,-12.1,-18.1,1,1,1,30.14,29.78,8,2,8,0.36
2012-12-3,49.5,44.0,35.5,-4.8,-9.1,-15.8,1,1,1,30.04,29.81,8,2,8,0.01
2012-12-4,60.7,46.2,34.7,31.3,-4.1,-16.4,34,6,1,30.02,29.65,11,3,11,0.04
2012-12-5,48.8,37.4,25.9,23.4,4.1,-16.8,60,28,1,30.09,29.72,14,5,14,0.22
2012-12-6,33.1,26.6,21.2,18.9,13.3,6.2,60,57,51,30.21,29.98,6,2,6,0.00
2012-12-7,34.7,30.5,26.6,20.2,1.1,-18.0,55,32,1,29.98,29.80,5,1,5,0.07
2012-12-8,44.6,37.2,33.3,-8.6,-14.4,-17.4,1,1,1,29.84,29.60,9,2,9,0.09
2012-12-9,43.4,38.3,32.9,28.3,3.3,-17.7,57,26,1,30.08,29.77,16,3,16,0.02
2012-12-10,46.8,40.8,35.8,-6.9,-11.6,-15.5,1,1,1,29.77,29.29,8,3,8,0.72
2012-12-11,38.0,32.6,26.8,12.0,-7.4,-22.5,42,16,1,29.98,29.45,10,4,10,0.00
2012-12-12,40.1,29.2,23.2,26.0,-6.9,-25.4,57,21,1,30.21,29.98,7,1,7,0.00
2012-12-13,41.6,30.9,26.5,26.9,-6.9,-22.9,57,19,1,30.24,30.05,2,0,2,0.00
2012-12-14,42.3,33.4,23.0,27.0,-1.2,-25.6,56,24,1,30.05,29.93,15,2,15,0.00
2012-12-15,40.9,34.2,28.8,27.6,4.1,-20.3,62,34,1,30.11,29.98,5,1,5,0.00
2012-12-16,33.8,31.7,28.4,17.5,0.1,-17.4,62,31,1,29.98,29.71,9,3,9,0.06
2012-12-17,39.1,36.3,33.5,-13.0,-15.1,-17.4,1,1,1,29.71,29.47,11,3,11,0.19
2012-12-18,42.5,39.5,36.5,-10.3,-12.6,-14.9,1,1,1,29.47,29.22,8,3,8,0.58
2012-12-19,40.7,36.9,33.1,26.4,5.4,-15.5,60,31,1,29.95,29.40,11,5,11,0.04
2012-12-20,36.0,31.7,24.5,23.1,10.0,-17.4,60,43,1,30.02,29.51,8,3,8,0.01
2012-12-21,39.4,35.9,33.3,3.9,-12.1,-17.4,26,6,1,29.51,28.87,15,6,15,1.12
2012-12-22,35.6,28.9,26.3,11.3,-2.3,-20.1,49,27,1,29.59,28.96,12,6,12,0.01
2012-12-23,34.6,30.7,27.5,19.7,-3.5,-22.0,56,24,1,29.70,29.55,8,2,8,0.00
2012-12-24,34.7,29.3,26.1,21.2,5.1,-20.8,58,39,1,29.86,29.70,8,2,8,0.00
2012-12-25,30.6,27.5,26.8,7.9,-16.1,-22.5,42,12,2,29.92,29.73,3,1,3,0.00
2012-12-26,27.9,25.3,24.7,11.7,-1.6,-24.1,56,34,1,29.97,29.54,9,3,9,0.00
2012-12-27,29.2,25.8,22.0,-19.1,-22.8,-26.3,15,3,1,29.70,29.37,13,5,13,0.00
2012-12-28,27.5,25.9,22.9,-20.3,-23.2,-25.7,14,2,1,29.89,29.70,8,4,8,0.00
2012-12-29,27.7,26.9,23.0,-21.8,-22.5,-25.6,1,1,1,29.83,29.40,8,1,8,0.00
2012-12-30,23.0,18.8,15.5,1.6,-17.6,-31.4,42,17,1,29.96,29.45,15,7,15,0.00
2012-12-31,34.9,27.4,19.1,20.8,-3.4,-27.5,56,29,2,29.93,29.57,11,4,11,0.01
2013-1-1,34.4,23.4,10.4,13.7,5.2,-18.0,61,47,1,29.79,29.55,13,5,13,0.00